Flight Track Log - Related Links

Times and Time Zones

All times are in EDT time to prevent confusion due to time zone crossing. See the TCF5983 flight status page for this flight to view local times or setup timezone preferences in your user account.

Time Position Orientation Groundspeed Altitude Reporting Facility
EDT Latitude Longitude Course Direction KTS MPH feet Rate Location/Type
Tue 03:53:05 PM 42.2356 -83.3289 34° Northeast 160 184 1,200  Level Cleveland Center
Tue 03:53:48 PM 42.2656 -83.3019 34° Northeast 205 236 2,200 1,582 Climbing Cleveland Center
Tue 03:54:55 PM 42.3256 -83.2317 41° Northeast 295 339 4,100 2,220 Climbing Cleveland Center
Tue 03:55:55 PM 42.3714 -83.1353 57° Northeast 312 359 6,900 2,673 Climbing Cleveland Center
Tue 03:56:45 PM 42.3186 -83.0769 141° Southeast 279 321 9,000 2,291 Climbing Cleveland Center
Tue 03:57:45 PM 42.2442 -83.0458 163° South 306 352 11,100 2,000 Climbing Cleveland Center
Tue 03:58:45 PM 42.1728 -83.0683 193° South 308 354 13,000 2,250 Climbing Cleveland Center
Tue 03:59:45 PM 42.1108 -83.1358 219° Southwest 274 315 15,600 2,300 Climbing Cleveland Center
Tue 04:00:45 PM 42.0469 -83.2003 217° Southwest 285 328 17,600 1,850 Climbing Cleveland Center
Tue 04:01:45 PM 41.9869 -83.2622 218° Southwest 301 346 19,300 1,800 Climbing Cleveland Center
Tue 04:02:45 PM 41.9164 -83.3347 217° Southwest 321 369 21,200 1,750 Climbing Cleveland Center
Tue 04:03:45 PM 41.8331 -83.4175 217° Southwest 332 382 22,800 1,500 Climbing Cleveland Center
Tue 04:04:45 PM 41.7561 -83.4947 217° Southwest 343 395 24,200 1,450 Climbing Cleveland Center
Tue 04:05:45 PM 41.6708 -83.5689 213° Southwest 356 410 25,700 1,400 Climbing Cleveland Center
Tue 04:06:45 PM 41.5678 -83.6056 195° South 367 422 27,000 1,250 Climbing Cleveland Center
Tue 04:07:45 PM 41.4606 -83.6394 193° South 380 437 28,200 1,150 Climbing Cleveland Center
Tue 04:08:45 PM 41.3631 -83.7011 205° Southwest 391 450 29,300 1,150 Climbing Cleveland Center
Tue 04:09:45 PM 41.2694 -83.7686 208° Southwest 391 450 30,500 850 Climbing Cleveland Center
Tue 04:10:45 PM 41.1714 -83.8411 209° Southwest 396 456 31,000 600 Climbing Cleveland Center
Tue 04:11:45 PM 41.0756 -83.9081 208° Southwest 402 463 31,700 701 Climbing Cleveland Center
Tue 04:12:02 PM 41.0572 -83.9231 212° Southwest 405 466 31,900 835 Climbing Indianapolis Center
Tue 04:13:04 PM 40.9519 -83.9983 208° Southwest 407 468 32,800 871 Climbing Indianapolis Center
Tue 04:14:06 PM 40.8522 -84.0703 209° Southwest 406 467 33,700 581 Climbing Indianapolis Center
Tue 04:15:08 PM 40.7522 -84.1414 208° Southwest 406 467 34,000 145 Climbing Indianapolis Center
Tue 04:16:10 PM 40.6311 -84.2264 208° Southwest 417 480 34,000  Level Indianapolis Center
Tue 04:17:12 PM 40.5303 -84.2994 209° Southwest 414 476 34,000  Level Indianapolis Center
Tue 04:18:14 PM 40.4292 -84.3703 208° Southwest 410 472 34,000  Level Indianapolis Center
Tue 04:19:16 PM 40.3264 -84.4419 208° Southwest 415 478 34,000  Level Indianapolis Center
Tue 04:20:18 PM 40.2269 -84.5117 208° Southwest 405 466 34,000  Level Indianapolis Center
Tue 04:21:20 PM 40.1250 -84.5819 208° Southwest 409 471 34,000  Level Indianapolis Center
Tue 04:22:21 PM 40.0256 -84.6517 208° Southwest 404 465 34,000  Level Indianapolis Center
Tue 04:23:23 PM 39.9075 -84.7331 208° Southwest 408 470 34,000  Level Indianapolis Center
Tue 04:24:25 PM 39.8061 -84.8031 208° Southwest 409 471 34,000  Level Indianapolis Center
Tue 04:25:27 PM 39.7214 -84.8933 219° Southwest 395 455 34,000  Level Indianapolis Center
Tue 04:26:29 PM 39.6533 -85.0069 232° Southwest 393 452 34,000  Level Indianapolis Center
Tue 04:27:31 PM 39.5856 -85.1192 232° Southwest 393 452 34,000  Level Indianapolis Center
Tue 04:28:33 PM 39.5192 -85.2300 232° Southwest 388 447 34,000  Level Indianapolis Center
Tue 04:29:35 PM 39.4522 -85.3386 231° Southwest 384 442 34,000  Level Indianapolis Center
Tue 04:30:36 PM 39.3761 -85.4667 232° Southwest 383 441 34,000  Level Indianapolis Center
Tue 04:31:38 PM 39.3103 -85.5747 232° Southwest 380 437 34,000  Level Indianapolis Center
Tue 04:32:40 PM 39.2503 -85.6719 231° Southwest 379 436 34,000  Level Indianapolis Center
Tue 04:33:42 PM 39.1842 -85.7794 232° Southwest 382 440 34,000  Level Indianapolis Center
Tue 04:34:44 PM 39.1189 -85.8875 232° Southwest 381 438 34,000  Level Indianapolis Center
Tue 04:35:46 PM 39.0400 -86.0167 232° Southwest 380 437 34,000  Level Indianapolis Center
Tue 04:36:48 PM 38.9731 -86.1236 231° Southwest 382 440 34,000  Level Indianapolis Center
Tue 04:37:50 PM 38.9072 -86.2306 232° Southwest 381 438 34,000  Level Indianapolis Center
Tue 04:38:52 PM 38.8392 -86.3383 231° Southwest 386 444 34,000  Level Indianapolis Center
Tue 04:39:54 PM 38.7711 -86.4472 231° Southwest 391 450 34,000  Level Indianapolis Center
Tue 04:40:56 PM 38.7031 -86.5547 231° Southwest 386 444 34,000  Level Indianapolis Center
Tue 04:41:58 PM 38.6358 -86.6617 231° Southwest 385 443 34,000  Level Indianapolis Center
Tue 04:43:00 PM 38.5542 -86.7894 231° Southwest 384 442 34,000  Level Indianapolis Center
Tue 04:44:02 PM 38.4867 -86.8961 231° Southwest 385 443 34,000  Level Indianapolis Center
Tue 04:45:05 PM 38.4192 -87.0028 231° Southwest 387 445 34,000  Level Indianapolis Center
Tue 04:46:07 PM 38.3453 -87.1186 231° Southwest 388 447 34,000  Level Indianapolis Center
Tue 04:47:08 PM 38.2772 -87.2236 230° Southwest 384 442 34,000  Level Indianapolis Center
Tue 04:48:10 PM 38.2075 -87.3328 231° Southwest 383 441 34,000  Level Indianapolis Center
Tue 04:49:12 PM 38.1411 -87.4356 231° Southwest 379 436 34,000  Level Indianapolis Center
Tue 04:50:15 PM 38.0747 -87.5383 231° Southwest 375 432 34,000  Level Indianapolis Center
Tue 04:51:17 PM 38.0078 -87.6408 230° Southwest 376 433 34,000  Level Indianapolis Center
Tue 04:52:19 PM 37.9397 -87.7442 230° Southwest 377 434 34,000  Level Indianapolis Center
Tue 04:53:21 PM 37.8567 -87.8656 229° Southwest 380 437 34,000  Level Indianapolis Center
Tue 04:55:25 PM 37.7211 -88.0625 229° Southwest 378 435 34,000  Level Indianapolis Center
Tue 04:56:27 PM 37.6536 -88.1600 229° Southwest 370 426 34,000  Level Indianapolis Center
Tue 04:57:32 PM 37.5811 -88.2767 232° Southwest 382 440 34,000  Level Memphis Center
Tue 04:58:31 PM 37.5133 -88.3617 225° Southwest 375 432 34,000  Level Indianapolis Center
Tue 04:59:32 PM 37.4447 -88.4708 232° Southwest 382 440 34,000  Level Memphis Center
Tue 05:00:32 PM 37.3731 -88.5719 228° Southwest 377 434 34,000  Level Memphis Center
Tue 05:01:32 PM 37.3036 -88.6672 228° Southwest 377 434 34,000  Level Memphis Center
Tue 05:02:32 PM 37.2342 -88.7653 228° Southwest 377 434 34,000  Level Memphis Center
Tue 05:03:32 PM 37.1644 -88.8628 228° Southwest 377 434 34,000  Level Memphis Center
Tue 05:04:32 PM 37.0947 -88.9603 228° Southwest 377 434 34,000  Level Memphis Center
Tue 05:05:32 PM 37.0250 -89.0578 228° Southwest 377 434 34,000  Level Memphis Center
Tue 05:06:32 PM 36.9553 -89.1575 229° Southwest 377 434 34,000  Level Memphis Center
Tue 05:07:32 PM 36.8853 -89.2544 228° Southwest 377 434 34,000  Level Memphis Center
Tue 05:08:32 PM 36.8131 -89.3514 227° Southwest 377 434 34,000  Level Memphis Center
Tue 05:09:32 PM 36.7453 -89.4481 229° Southwest 377 434 34,000  Level Memphis Center
Tue 05:10:32 PM 36.6750 -89.5447 228° Southwest 377 434 34,000  Level Memphis Center
Tue 05:11:32 PM 36.6025 -89.6436 228° Southwest 377 434 34,000  Level Memphis Center
Tue 05:12:32 PM 36.5322 -89.7372 227° Southwest 377 434 34,000  Level Memphis Center
Tue 05:13:32 PM 36.4597 -89.8358 228° Southwest 377 434 34,000  Level Memphis Center
Tue 05:14:32 PM 36.3892 -89.9317 228° Southwest 377 434 34,000  Level Memphis Center
Tue 05:15:32 PM 36.3186 -90.0272 228° Southwest 377 434 34,000  Level Memphis Center
Tue 05:16:32 PM 36.2458 -90.1228 227° Southwest 377 434 34,000  Level Memphis Center
Tue 05:17:32 PM 36.1753 -90.2181 227° Southwest 377 434 34,000  Level Memphis Center
Tue 05:18:32 PM 36.1128 -90.3211 233° Southwest 377 434 34,000  Level Memphis Center
Tue 05:19:32 PM 36.0564 -90.4264 236° Southwest 377 434 34,000  Level Memphis Center
Tue 05:20:32 PM 35.9981 -90.5339 236° Southwest 383 441 34,000  Level Memphis Center
Tue 05:21:32 PM 35.9414 -90.6417 237° Southwest 383 441 34,000  Level Memphis Center
Tue 05:22:32 PM 35.8828 -90.7489 236° Southwest 388 447 34,000  Level Memphis Center
Tue 05:23:32 PM 35.8239 -90.8536 235° Southwest 383 441 34,000  Level Memphis Center
Tue 05:24:32 PM 35.7653 -90.9583 235° Southwest 378 435 34,000  Level Memphis Center
Tue 05:25:32 PM 35.7103 -91.0628 237° Southwest 378 435 34,000  Level Memphis Center
Tue 05:26:32 PM 35.6556 -91.1669 237° Southwest 369 425 34,000  Level Memphis Center
Tue 05:27:32 PM 35.6006 -91.2736 238° Southwest 369 425 34,000  Level Memphis Center
Tue 05:28:32 PM 35.5414 -91.3750 234° Southwest 369 425 34,000  Level Memphis Center
Tue 05:29:32 PM 35.4778 -91.4889 236° Southwest 362 417 34,000  Level Memphis Center
Tue 05:30:32 PM 35.4206 -91.5953 237° Southwest 368 423 34,000  Level Memphis Center
Tue 05:31:32 PM 35.3611 -91.6961 234° Southwest 373 429 34,000  Level Memphis Center
Tue 05:32:32 PM 35.3058 -91.8022 237° Southwest 373 429 34,000  Level Memphis Center
Tue 05:33:32 PM 35.2461 -91.9056 235° Southwest 373 429 34,000  Level Memphis Center
Tue 05:34:32 PM 35.1842 -92.0111 234° Southwest 373 429 34,000  Level Memphis Center
Tue 05:35:32 PM 35.1286 -92.1139 237° Southwest 373 429 34,000  Level Memphis Center
Tue 05:36:32 PM 35.0667 -92.2192 234° Southwest 379 436 34,000  Level Memphis Center
Tue 05:37:32 PM 35.0108 -92.3244 237° Southwest 379 436 34,000  Level Memphis Center
Tue 05:38:32 PM 34.9486 -92.4294 234° Southwest 379 436 34,000  Level Memphis Center
Tue 05:39:32 PM 34.8903 -92.5369 237° Southwest 379 436 34,000  Level Memphis Center
Tue 05:40:32 PM 34.8300 -92.6367 234° Southwest 379 436 34,000  Level Memphis Center
Tue 05:41:32 PM 34.7719 -92.7411 236° Southwest 379 436 34,000  Level Memphis Center
Tue 05:42:32 PM 34.7114 -92.8456 235° Southwest 379 436 34,000  Level Memphis Center
Tue 05:43:32 PM 34.6508 -92.9500 235° Southwest 384 442 34,000  Level Memphis Center
Tue 05:44:32 PM 34.5922 -93.0542 236° Southwest 384 442 34,000  Level Memphis Center
Tue 05:45:32 PM 34.5317 -93.1581 235° Southwest 384 442 34,000  Level Memphis Center
Tue 05:47:56 PM 34.3969 -93.3942 235° Southwest 375 432 34,000  Level Fort Center
Tue 05:48:56 PM 34.3375 -93.4950 234° Southwest 375 432 34,000  Level Fort Center
Tue 05:49:56 PM 34.2972 -93.6100 247° West 375 432 34,000  Level Fort Center
Tue 05:50:56 PM 34.2633 -93.7322 251° West 375 432 34,000  Level Fort Center
Tue 05:51:56 PM 34.2294 -93.8542 251° West 381 438 34,000  Level Fort Center
Tue 05:52:56 PM 34.1972 -93.9711 252° West 381 438 34,000  Level Fort Center
Tue 05:53:56 PM 34.1628 -94.0928 251° West 381 438 34,000  Level Fort Center
Tue 05:54:56 PM 34.1303 -94.2094 251° West 381 438 34,000  Level Fort Center
Tue 05:55:56 PM 34.0981 -94.3286 252° West 376 433 34,000  Level Fort Center
Tue 05:56:56 PM 34.0633 -94.4475 251° West 376 433 34,000  Level Fort Center
Tue 05:57:56 PM 34.0286 -94.5692 251° West 376 433 34,000 -50 Level Fort Center
Tue 05:58:56 PM 33.9914 -94.6881 249° West 376 433 33,900 -500 Descending Fort Center
Tue 05:59:56 PM 33.9583 -94.8042 251° West 376 433 33,000 -1,000 Descending Fort Center
Tue 06:00:56 PM 33.9253 -94.9203 251° West 376 433 31,900 -1,050 Descending Fort Center
Tue 06:01:56 PM 33.8900 -95.0389 250° West 376 433 30,900 -1,050 Descending Fort Center
Tue 06:02:56 PM 33.8528 -95.1675 251° West 381 438 29,800 -1,150 Descending Fort Center
Tue 06:03:56 PM 33.8156 -95.2983 251° West 400 460 28,600 -1,550 Descending Fort Center
Tue 06:04:56 PM 33.7758 -95.4269 250° West 412 474 26,700 -1,900 Descending Fort Center
Tue 06:05:56 PM 33.7381 -95.5550 250° West 412 474 24,800 -2,050 Descending Fort Center
Tue 06:06:56 PM 33.7006 -95.6958 252° West 401 461 22,600 -2,100 Descending Fort Center
Tue 06:07:56 PM 33.6644 -95.8186 251° West 401 461 20,600 -1,950 Descending Fort Center
Tue 06:08:56 PM 33.6264 -95.9392 249° West 393 452 18,700 -1,900 Descending Fort Center
Tue 06:09:56 PM 33.5922 -96.0544 250° West 378 435 16,800 -1,750 Descending Fort Center
Tue 06:10:56 PM 33.5578 -96.1672 250° West 366 421 15,200 -1,500 Descending Fort Center
Tue 06:11:56 PM 33.5150 -96.2650 242° Southwest 353 406 13,800 -1,550 Descending Fort Center
Tue 06:12:56 PM 33.4550 -96.3353 224° Southwest 321 369 12,100 -1,450 Descending Fort Center
Tue 06:13:56 PM 33.3992 -96.4033 226° Southwest 299 344 10,900 -1,600 Descending Fort Center
Tue 06:14:56 PM 33.3456 -96.4661 224° Southwest 282 325 8,900 -1,800 Descending Fort Center
Tue 06:15:56 PM 33.3253 -96.5533 254° West 272 313 7,300 -1,650 Descending Fort Center
Tue 06:16:56 PM 33.3111 -96.6403 259° West 272 313 5,600 -1,150 Descending Fort Center
Tue 06:17:56 PM 33.3011 -96.7275 262° West 278 320 5,000 -300 Descending Fort Center
Tue 06:18:56 PM 33.2892 -96.8169 261° West 273 314 5,000  Level Fort Center
Tue 06:19:56 PM 33.2769 -96.8967 260° West 273 314 5,000  Level Fort Center
Tue 06:20:56 PM 33.2522 -96.9739 249° West 246 283 5,000  Level Fort Center
Tue 06:21:56 PM 33.2064 -97.0014 207° Southwest 203 234 5,000  Level Fort Center
Tue 06:22:56 PM 33.1500 -97.0089 186° South 185 213 5,000 -250 Level Fort Center
Tue 06:23:56 PM 33.1042 -97.0092 180° South 185 213 4,500 -824 Descending Fort Center
Tue 06:24:38 PM 33.0667 -97.0167 190° South 182 209 3,600 -1,059 Descending Dallas TRACON
Tue 06:25:38 PM 33.0167 -97.0167 180° South 181 208 2,700 -887 Descending Dallas TRACON
Tue 06:26:33 PM 32.9667 -97.0167 180° South 165 190 1,900 -783 Descending Dallas TRACON
Tue 06:27:33 PM 32.9333 -97.0167 180° South 128 147 1,200 -700 Descending Dallas TRACON
Tue 06:29:00 PM 32.8968 -97.0380 232° Southwest  Level Estimated
Tue 06:36:00 PM 32.8968 -97.0380 232° Southwest  Level Estimated

Login

Don't have an account? Register now (free) for customized features, flight alerts, and more!